Time;durP1;ratioP1;P1;durP2;ratioP2;P2;SDS_P1;SDS_P2;PMS_P1;PMS_P2;Temp;Humidity;BMP_temperature;BMP_pressure;BME280_temperature;BME280_humidity;BME280_pressure;Samples;Min_cycle;Max_cycle;Signal;HPM_P1;HPM_P2
2022/09/26 00:02:51;;;;;;;;;;;;;;;;;;10458129;28;19994;-60
2022/09/26 00:07:53;;;;;;;;;;;;;;;;;;10457896;28;20143;-60
2022/09/26 00:12:56;;;;;;;;;;;;;;;;;;10466049;28;19932;-60
2022/09/26 00:17:58;;;;;;;;;;;;;;;;;;10469365;28;19933;-60
2022/09/26 00:23:00;;;;;;;;;;;;;;;;;;10464442;28;19928;-60
2022/09/26 00:28:05;;;;;;;;;;;;;;;;;;10457969;28;20350;-60
2022/09/26 00:33:09;;;;;;;;;;;;;;;;;;10456901;28;19924;-61
2022/09/26 00:38:11;;;;;;;;;;;;;;;;;;10456035;28;20284;-60
2022/09/26 00:43:13;;;;;;;;;;;;;;;;;;10457117;28;19925;-60
2022/09/26 00:48:15;;;;;;;;;;;;;;;;;;10457142;28;19986;-61
2022/09/26 00:53:17;;;;;;;;;;;;;;;;;;10455448;28;19924;-61
2022/09/26 00:58:19;;;;;;;;;;;;;;;;;;10456685;28;19925;-61
2022/09/26 01:03:22;;;;;;;;;;;;;;;;;;10453148;28;19951;-61
2022/09/26 01:08:24;;;;;;;;;;;;;;;;;;10455086;28;19925;-61
2022/09/26 01:13:26;;;;;;;;;;;;;;;;;;10454905;28;19924;-60
2022/09/26 01:18:28;;;;;;;;;;;;;;;;;;10454665;28;20277;-61
2022/09/26 01:23:30;;;;;;;;;;;;;;;;;;10453294;28;19979;-61
2022/09/26 01:28:32;;;;;;;;;;;;;;;;;;10455434;28;19979;-61
2022/09/26 01:33:34;;;;;;;;;;;;;;;;;;10455904;28;19924;-61
2022/09/26 01:38:36;;;;;;;;;;;;;;;;;;10435370;28;19990;-61
2022/09/26 01:43:38;;;;;;;;;;;;;;;;;;10464715;28;19924;-61
2022/09/26 01:48:40;;;;;;;;;;;;;;;;;;10463444;28;19925;-61
2022/09/26 01:53:42;;;;;;;;;;;;;;;;;;10463662;28;19925;-61
2022/09/26 01:58:44;;;;;;;;;;;;;;;;;;10463077;28;19929;-61
2022/09/26 02:03:46;;;;;;;;;;;;;;;;;;10463566;28;19925;-61
2022/09/26 02:08:48;;;;;;;;;;;;;;;;;;10464342;28;20015;-61
2022/09/26 02:13:50;;;;;;;;;;;;;;;;;;10462528;28;20435;-61
2022/09/26 02:18:52;;;;;;;;;;;;;;;;;;10462291;28;20360;-61
2022/09/26 02:23:54;;;;;;;;;;;;;;;;;;10461922;28;19955;-61
2022/09/26 02:28:57;;;;;;;;;;;;;;;;;;10462522;28;19951;-61
2022/09/26 02:33:59;;;;;;;;;;;;;;;;;;10467702;28;19970;-61
2022/09/26 02:39:01;;;;;;;;;;;;;;;;;;10470045;28;20387;-61
2022/09/26 02:44:03;;;;;;;;;;;;;;;;;;10461131;28;20376;-61
2022/09/26 02:49:05;;;;;;;;;;;;;;;;;;10461571;28;20346;-61
2022/09/26 02:54:07;;;;;;;;;;;;;;;;;;10460493;28;19925;-60
2022/09/26 02:59:09;;;;;;;;;;;;;;;;;;10458829;28;19925;-61
2022/09/26 03:04:13;;;;;;;;;;;;;;;;;;10461570;28;19925;-61
2022/09/26 03:09:15;;;;;;;;;;;;;;;;;;10459617;28;20362;-61
2022/09/26 03:14:19;;;;;;;;;;;;;;;;;;10460839;28;19971;-61
2022/09/26 03:19:22;;;;;;;;;;;;;;;;;;10460030;28;19947;-61
2022/09/26 03:24:24;;;;;;;;;;;;;;;;;;10459485;28;19925;-61
2022/09/26 03:29:27;;;;;;;;;;;;;;;;;;10459283;28;20038;-61
2022/09/26 03:34:29;;;;;;;;;;;;;;;;;;10434387;22;19925;-62
2022/09/26 03:39:31;;;;;;;;;;;;;;;;;;10418208;28;20371;-62
2022/09/26 03:44:33;;;;;;;;;;;;;;;;;;10415964;28;19978;-62
2022/09/26 03:49:35;;;;;;;;;;;;;;;;;;10418553;28;19980;-62
2022/09/26 03:54:37;;;;;;;;;;;;;;;;;;10416914;28;19925;-61
2022/09/26 03:59:39;;;;;;;;;;;;;;;;;;10414648;28;19925;-62
2022/09/26 04:04:41;;;;;;;;;;;;;;;;;;10414267;28;20319;-62
2022/09/26 04:09:45;;;;;;;;;;;;;;;;;;10414275;28;21423;-62
2022/09/26 04:14:47;;;;;;;;;;;;;;;;;;10417558;28;19925;-62
2022/09/26 04:19:49;;;;;;;;;;;;;;;;;;10415685;28;19925;-62
2022/09/26 04:24:52;;;;;;;;;;;;;;;;;;10416494;28;20388;-61
2022/09/26 04:29:56;;;;;;;;;;;;;;;;;;10413931;28;19929;-62
2022/09/26 04:34:58;;;;;;;;;;;;;;;;;;10415851;28;20265;-62
2022/09/26 04:40:00;;;;;;;;;;;;;;;;;;10414552;28;19925;-62
2022/09/26 04:45:02;;;;;;;;;;;;;;;;;;10416225;28;19971;-62
2022/09/26 04:50:04;;;;;;;;;;;;;;;;;;10416020;28;19925;-62
2022/09/26 04:55:06;;;;;;;;;;;;;;;;;;10413928;28;19971;-62
2022/09/26 05:00:11;;;;;;;;;;;;;;;;;;10415558;28;19932;-62
2022/09/26 05:05:14;;;;;;;;;;;;;;;;;;10415339;28;19925;-62
2022/09/26 05:10:16;;;;;;;;;;;;;;;;;;10413851;28;19987;-62
2022/09/26 05:15:18;;;;;;;;;;;;;;;;;;10419079;28;20489;-61
2022/09/26 05:20:22;;;;;;;;;;;;;;;;;;10414525;28;19995;-61
2022/09/26 05:30:45;;;;;;;;;;;;;;;;;;10414561;28;19929;-62
2022/09/26 05:35:47;;;;;;;;;;;;;;;;;;10414356;28;19925;-62
2022/09/26 05:40:55;;;;;;;;;;;;;;;;;;10414662;28;19925;-62
2022/09/26 05:45:58;;;;;;;;;;;;;;;;;;10414061;28;19936;-62
2022/09/26 05:51:00;;;;;;;;;;;;;;;;;;10414587;28;19980;-62
2022/09/26 05:56:02;;;;;;;;;;;;;;;;;;10393251;28;19925;-62
2022/09/26 06:01:04;;;;;;;;;;;;;;;;;;10413930;28;19987;-62
2022/09/26 06:06:07;;;;;;;;;;;;;;;;;;10411681;28;20023;-62
2022/09/26 06:11:09;;;;;;;;;;;;;;;;;;10415223;28;19964;-62
2022/09/26 06:16:11;;;;;;;;;;;;;;;;;;10414137;28;19936;-62
2022/09/26 06:21:13;;;;;;;;;;;;;;;;;;10414137;28;19925;-62
2022/09/26 06:26:16;;;;;;;;;;;;;;;;;;10417370;28;19929;-62
2022/09/26 06:31:18;;;;;;;;;;;;;;;;;;10418202;28;19925;-62
2022/09/26 06:36:20;;;;;;;;;;;;;;;;;;10420618;28;19925;-62
2022/09/26 06:41:25;;;;;;;;;;;;;;;;;;10419501;28;19925;-62
2022/09/26 06:46:27;;;;;;;;;;;;;;;;;;10421611;28;19931;-62
2022/09/26 06:51:30;;;;;;;;;;;;;;;;;;10421583;28;20008;-62
2022/09/26 06:56:32;;;;;;;;;;;;;;;;;;10419337;28;19925;-62
2022/09/26 07:01:34;;;;;;;;;;;;;;;;;;10401716;28;19972;-62
2022/09/26 07:06:37;;;;;;;;;;;;;;;;;;10419425;28;20016;-62
2022/09/26 07:11:39;;;;;;;;;;;;;;;;;;10422357;28;19933;-62
2022/09/26 07:17:01;;;;;;;;;;;;;;;;;;10420165;28;20016;-62
2022/09/26 07:22:05;;;;;;;;;;;;;;;;;;10418818;28;19925;-62
2022/09/26 07:27:07;;;;;;;;;;;;;;;;;;10419577;28;19991;-62
2022/09/26 07:32:09;;;;;;;;;;;;;;;;;;10418414;28;19925;-61
2022/09/26 07:37:11;;;;;;;;;;;;;;;;;;10418219;28;19928;-62
2022/09/26 07:42:14;;;;;;;;;;;;;;;;;;10417233;28;20335;-62
2022/09/26 07:52:37;;;;;;;;;;;;;;;;;;10419099;28;19929;-62
2022/09/26 07:57:39;;;;;;;;;;;;;;;;;;10417581;28;19925;-62
2022/09/26 08:02:41;;;;;;;;;;;;;;;;;;10417294;28;19929;-62
2022/09/26 08:07:43;;;;;;;;;;;;;;;;;;10417947;28;19987;-61
2022/09/26 08:12:46;;;;;;;;;;;;;;;;;;10418376;28;19925;-61
2022/09/26 08:17:48;;;;;;;;;;;;;;;;;;10417878;28;19933;-62
2022/09/26 08:22:50;;;;;;;;;;;;;;;;;;10418013;28;19975;-62
2022/09/26 08:27:52;;;;;;;;;;;;;;;;;;10417781;28;19929;-61
2022/09/26 08:32:57;;;;;;;;;;;;;;;;;;10417121;28;19975;-62
2022/09/26 08:38:00;;;;;;;;;;;;;;;;;;10417342;28;19979;-62
2022/09/26 08:43:03;;;;;;;;;;;;;;;;;;10416609;28;19987;-62
2022/09/26 08:48:05;;;;;;;;;;;;;;;;;;10416844;28;19933;-62
2022/09/26 08:53:07;;;;;;;;;;;;;;;;;;10416865;28;19925;-62
2022/09/26 08:58:09;;;;;;;;;;;;;;;;;;10415881;28;19928;-62
2022/09/26 09:03:11;;;;;;;;;;;;;;;;;;10398786;28;19933;-62
2022/09/26 09:08:13;;;;;;;;;;;;;;;;;;10416497;28;19932;-62
2022/09/26 09:13:15;;;;;;;;;;;;;;;;;;10415764;28;19925;-62
2022/09/26 09:18:18;;;;;;;;;;;;;;;;;;10416073;28;19926;-62
2022/09/26 09:23:20;;;;;;;;;;;;;;;;;;10415609;28;19925;-62
2022/09/26 09:28:22;;;;;;;;;;;;;;;;;;10415982;28;19929;-62
2022/09/26 09:33:24;;;;;;;;;;;;;;;;;;10415252;28;20051;-62
2022/09/26 09:38:26;;;;;;;;;;;;;;;;;;10415138;28;20047;-62
2022/09/26 09:43:28;;;;;;;;;;;;;;;;;;10415105;28;20284;-62
2022/09/26 09:48:30;;;;;;;;;;;;;;;;;;10415023;28;19987;-62
2022/09/26 09:53:32;;;;;;;;;;;;;;;;;;10414919;28;20373;-62
2022/09/26 09:58:34;;;;;;;;;;;;;;;;;;10411025;28;19941;-62
2022/09/26 10:03:36;;;;;;;;;;;;;;;;;;10415228;28;19925;-63
2022/09/26 10:08:41;;;;;;;;;;;;;;;;;;10423602;28;20380;-63
2022/09/26 10:13:43;;;;;;;;;;;;;;;;;;10400774;28;19987;-62
2022/09/26 10:18:46;;;;;;;;;;;;;;;;;;10422831;28;19925;-63
2022/09/26 10:23:49;;;;;;;;;;;;;;;;;;10422054;28;19979;-63
2022/09/26 10:28:58;;;;;;;;;;;;;;;;;;10421134;28;19952;-63
2022/09/26 10:34:00;;;;;;;;;;;;;;;;;;10420962;28;19979;-63
2022/09/26 10:44:23;;;;;;;;;;;;;;;;;;10421281;28;19932;-63
2022/09/26 10:49:25;;;;;;;;;;;;;;;;;;10420645;28;19925;-63
2022/09/26 10:54:28;;;;;;;;;;;;;;;;;;10420790;28;20326;-62
2022/09/26 10:59:30;;;;;;;;;;;;;;;;;;10419795;28;20296;-62
2022/09/26 11:09:53;;;;;;;;;;;;;;;;;;10420966;28;19933;-62
2022/09/26 11:14:56;;;;;;;;;;;;;;;;;;10418231;28;19975;-61
2022/09/26 11:19:59;;;;;;;;;;;;;;;;;;10419581;28;19929;-62
2022/09/26 11:25:02;;;;;;;;;;;;;;;;;;10419746;28;19995;-63
2022/09/26 11:30:07;;;;;;;;;;;;;;;;;;10419346;28;20331;-62
2022/09/26 11:35:10;;;;;;;;;;;;;;;;;;10399357;28;19944;-62
2022/09/26 11:40:12;;;;;;;;;;;;;;;;;;10418608;28;20047;-61
2022/09/26 11:45:14;;;;;;;;;;;;;;;;;;10416806;28;19971;-62
2022/09/26 11:50:16;;;;;;;;;;;;;;;;;;10418567;28;19925;-62
2022/09/26 11:55:18;;;;;;;;;;;;;;;;;;10419029;28;19926;-63
2022/09/26 12:00:25;;;;;;;;;;;;;;;;;;10418129;28;20335;-63
2022/09/26 12:05:27;;;;;;;;;;;;;;;;;;10418743;28;19976;-63
2022/09/26 12:10:30;;;;;;;;;;;;;;;;;;10417089;28;19995;-63
2022/09/26 12:15:32;;;;;;;;;;;;;;;;;;10415049;28;19976;-62
2022/09/26 12:20:34;;;;;;;;;;;;;;;;;;10418159;28;19933;-62
2022/09/26 12:25:36;;;;;;;;;;;;;;;;;;10399426;28;19956;-62
2022/09/26 12:30:38;;;;;;;;;;;;;;;;;;10415672;28;19925;-62
2022/09/26 12:35:42;;;;;;;;;;;;;;;;;;10412704;28;19925;-63
2022/09/26 12:40:45;;;;;;;;;;;;;;;;;;10415856;28;19929;-62
2022/09/26 12:45:47;;;;;;;;;;;;;;;;;;10416626;28;19995;-62
2022/09/26 12:50:53;;;;;;;;;;;;;;;;;;10416136;28;20020;-62
2022/09/26 12:55:56;;;;;;;;;;;;;;;;;;10414951;28;20311;-62
2022/09/26 13:00:58;;;;;;;;;;;;;;;;;;10416796;28;19925;-61
2022/09/26 13:06:00;;;;;;;;;;;;;;;;;;10415519;28;19925;-62
2022/09/26 13:11:07;;;;;;;;;;;;;;;;;;10418050;28;19964;-62
2022/09/26 13:16:12;;;;;;;;;;;;;;;;;;10428292;28;20438;-63
2022/09/26 13:21:14;;;;;;;;;;;;;;;;;;10416154;28;19925;-62
2022/09/26 13:26:16;;;;;;;;;;;;;;;;;;10415309;28;19925;-61
2022/09/26 13:31:18;;;;;;;;;;;;;;;;;;10415130;28;20377;-62
2022/09/26 13:36:21;;;;;;;;;;;;;;;;;;10418171;28;19965;-62
2022/09/26 13:41:24;;;;;;;;;;;;;;;;;;10423307;28;19937;-62
2022/09/26 13:46:26;;;;;;;;;;;;;;;;;;10415831;28;19932;-61
2022/09/26 13:51:28;;;;;;;;;;;;;;;;;;10416875;28;19925;-62
2022/09/26 13:56:30;;;;;;;;;;;;;;;;;;10423088;28;19929;-61
2022/09/26 14:01:32;;;;;;;;;;;;;;;;;;10423289;28;19925;-62
2022/09/26 14:06:34;;;;;;;;;;;;;;;;;;10418251;28;19925;-62
2022/09/26 14:11:39;;;;;;;;;;;;;;;;;;10428990;28;19929;-62
2022/09/26 14:16:41;;;;;;;;;;;;;;;;;;10422925;28;19951;-62
2022/09/26 14:21:45;;;;;;;;;;;;;;;;;;10422104;28;19979;-62
2022/09/26 14:26:47;;;;;;;;;;;;;;;;;;10417557;28;19987;-62
2022/09/26 14:31:49;;;;;;;;;;;;;;;;;;10421223;28;19925;-62
2022/09/26 14:36:51;;;;;;;;;;;;;;;;;;10420362;28;19971;-61
2022/09/26 14:41:53;;;;;;;;;;;;;;;;;;10419802;28;19929;-62
2022/09/26 14:46:56;;;;;;;;;;;;;;;;;;10418801;28;19972;-62
2022/09/26 14:51:58;;;;;;;;;;;;;;;;;;10421614;28;19929;-62
2022/09/26 14:57:00;;;;;;;;;;;;;;;;;;10421399;28;19975;-62
2022/09/26 15:02:02;;;;;;;;;;;;;;;;;;10418533;28;20081;-62
2022/09/26 15:07:04;;;;;;;;;;;;;;;;;;10419840;28;19931;-60
2022/09/26 15:12:07;;;;;;;;;;;;;;;;;;10418726;28;19925;-62
2022/09/26 15:17:09;;;;;;;;;;;;;;;;;;10418517;28;19925;-62
2022/09/26 15:22:14;;;;;;;;;;;;;;;;;;10420419;28;19971;-62
2022/09/26 15:27:16;;;;;;;;;;;;;;;;;;10417600;28;19925;-61
2022/09/26 15:32:20;;;;;;;;;;;;;;;;;;10418814;28;19983;-61
2022/09/26 15:37:22;;;;;;;;;;;;;;;;;;10419456;28;19925;-61
2022/09/26 15:47:46;;;;;;;;;;;;;;;;;;10425470;22;19925;-60
2022/09/26 15:52:48;;;;;;;;;;;;;;;;;;10417409;28;19952;-61
2022/09/26 15:57:50;;;;;;;;;;;;;;;;;;10418282;28;19929;-62
2022/09/26 16:02:52;;;;;;;;;;;;;;;;;;10418994;28;19925;-61
2022/09/26 16:07:57;;;;;;;;;;;;;;;;;;10414041;28;19933;-62
2022/09/26 16:12:59;;;;;;;;;;;;;;;;;;10418503;28;19925;-61
2022/09/26 16:18:02;;;;;;;;;;;;;;;;;;10417644;28;19931;-62
2022/09/26 16:23:05;;;;;;;;;;;;;;;;;;10416023;28;19971;-62
2022/09/26 16:28:10;;;;;;;;;;;;;;;;;;10415624;28;19972;-62
2022/09/26 16:33:14;;;;;;;;;;;;;;;;;;10417013;28;19925;-61
2022/09/26 16:38:16;;;;;;;;;;;;;;;;;;10417464;28;19979;-61
2022/09/26 16:43:18;;;;;;;;;;;;;;;;;;10414300;28;20445;-62
2022/09/26 16:48:20;;;;;;;;;;;;;;;;;;10415727;28;19929;-61
2022/09/26 16:53:24;;;;;;;;;;;;;;;;;;10416776;28;19975;-62
2022/09/26 16:58:26;;;;;;;;;;;;;;;;;;10415944;28;19929;-61
2022/09/26 17:03:28;;;;;;;;;;;;;;;;;;10415075;28;19926;-62
2022/09/26 17:08:32;;;;;;;;;;;;;;;;;;10414336;28;19939;-61
2022/09/26 17:13:34;;;;;;;;;;;;;;;;;;10414503;28;20380;-61
2022/09/26 17:18:36;;;;;;;;;;;;;;;;;;10413307;28;20439;-62
2022/09/26 17:23:39;;;;;;;;;;;;;;;;;;10416119;28;19925;-61
2022/09/26 17:28:42;;;;;;;;;;;;;;;;;;10414528;28;19925;-61
2022/09/26 17:33:45;;;;;;;;;;;;;;;;;;10414773;28;19936;-62
2022/09/26 17:38:47;;;;;;;;;;;;;;;;;;10414452;28;20322;-60
2022/09/26 17:43:57;;;;;;;;;;;;;;;;;;10413515;28;19925;-62
2022/09/26 17:49:03;;;;;;;;;;;;;;;;;;10414130;28;19929;-62
2022/09/26 17:54:06;;;;;;;;;;;;;;;;;;10415102;28;19971;-61
2022/09/26 17:59:08;;;;;;;;;;;;;;;;;;10405225;28;19979;-61
2022/09/26 18:04:16;;;;;;;;;;;;;;;;;;10413863;28;19975;-61
2022/09/26 18:09:18;;;;;;;;;;;;;;;;;;10413257;28;19929;-61
2022/09/26 18:14:22;;;;;;;;;;;;;;;;;;10413815;28;19925;-61
2022/09/26 18:19:24;;;;;;;;;;;;;;;;;;10414273;28;19929;-61
2022/09/26 18:24:26;;;;;;;;;;;;;;;;;;10420941;28;19926;-61
2022/09/26 18:29:31;;;;;;;;;;;;;;;;;;10420210;28;19971;-61
2022/09/26 18:34:33;;;;;;;;;;;;;;;;;;10421763;28;20372;-62
2022/09/26 18:39:36;;;;;;;;;;;;;;;;;;10419699;28;19925;-62
2022/09/26 18:44:38;;;;;;;;;;;;;;;;;;10421947;28;19971;-61
2022/09/26 18:49:40;;;;;;;;;;;;;;;;;;10418914;28;20331;-61
2022/09/26 18:54:43;;;;;;;;;;;;;;;;;;10419490;28;19925;-62
2022/09/26 18:59:45;;;;;;;;;;;;;;;;;;10420620;28;20388;-62
2022/09/26 19:04:47;;;;;;;;;;;;;;;;;;10421234;28;19975;-61
2022/09/26 19:09:49;;;;;;;;;;;;;;;;;;10418483;28;20038;-61
2022/09/26 19:14:51;;;;;;;;;;;;;;;;;;10420698;28;19925;-61
2022/09/26 19:19:53;;;;;;;;;;;;;;;;;;10420539;28;19925;-61
2022/09/26 19:24:56;;;;;;;;;;;;;;;;;;10415027;28;19925;-61
2022/09/26 19:29:58;;;;;;;;;;;;;;;;;;10417993;28;19929;-61
2022/09/26 19:35:00;;;;;;;;;;;;;;;;;;10417442;28;19971;-61
2022/09/26 19:40:02;;;;;;;;;;;;;;;;;;10419469;28;19979;-61
2022/09/26 19:45:04;;;;;;;;;;;;;;;;;;10419493;28;19925;-61
2022/09/26 19:50:06;;;;;;;;;;;;;;;;;;10417006;28;19979;-61
2022/09/26 19:55:08;;;;;;;;;;;;;;;;;;10419242;28;19932;-61
2022/09/26 20:00:10;;;;;;;;;;;;;;;;;;10416570;28;19925;-62
2022/09/26 20:05:13;;;;;;;;;;;;;;;;;;10418259;28;20331;-62
2022/09/26 20:10:15;;;;;;;;;;;;;;;;;;10416682;28;19933;-62
2022/09/26 20:15:19;;;;;;;;;;;;;;;;;;10416589;28;19930;-62
2022/09/26 20:20:21;;;;;;;;;;;;;;;;;;10417350;28;19925;-61
2022/09/26 20:25:23;;;;;;;;;;;;;;;;;;10418248;28;19925;-62
2022/09/26 20:35:48;;;;;;;;;;;;;;;;;;10415058;28;20028;-61
2022/09/26 20:40:51;;;;;;;;;;;;;;;;;;10416394;28;19925;-61
2022/09/26 20:45:53;;;;;;;;;;;;;;;;;;10435204;28;20365;-60
2022/09/26 20:50:55;;;;;;;;;;;;;;;;;;10416291;28;20372;-62
2022/09/26 20:55:57;;;;;;;;;;;;;;;;;;10416110;28;19954;-62
2022/09/26 21:00:59;;;;;;;;;;;;;;;;;;10416189;28;20039;-61
2022/09/26 21:06:01;;;;;;;;;;;;;;;;;;10412831;28;19932;-61
2022/09/26 21:11:04;;;;;;;;;;;;;;;;;;10415172;28;19972;-61
2022/09/26 21:16:06;;;;;;;;;;;;;;;;;;10414198;28;19971;-61
2022/09/26 21:21:08;;;;;;;;;;;;;;;;;;10416567;28;19970;-61
2022/09/26 21:26:10;;;;;;;;;;;;;;;;;;10396677;28;19925;-62
2022/09/26 21:31:12;;;;;;;;;;;;;;;;;;10375301;28;19976;-62
2022/09/26 21:36:14;;;;;;;;;;;;;;;;;;10375155;28;19936;-61
2022/09/26 21:41:16;;;;;;;;;;;;;;;;;;10386279;28;19948;-61
2022/09/26 21:46:18;;;;;;;;;;;;;;;;;;10414007;28;19971;-61
2022/09/26 21:51:20;;;;;;;;;;;;;;;;;;10414056;28;19926;-62
2022/09/26 21:56:24;;;;;;;;;;;;;;;;;;10416827;28;19932;-62
2022/09/26 22:01:26;;;;;;;;;;;;;;;;;;10423714;28;19924;-61
2022/09/26 22:06:28;;;;;;;;;;;;;;;;;;10420503;28;19968;-62
2022/09/26 22:11:31;;;;;;;;;;;;;;;;;;10423338;28;19926;-61
2022/09/26 22:16:33;;;;;;;;;;;;;;;;;;10419529;28;19929;-61
2022/09/26 22:21:35;;;;;;;;;;;;;;;;;;10422310;28;19979;-61
2022/09/26 22:26:37;;;;;;;;;;;;;;;;;;10419812;28;19952;-61
2022/09/26 22:31:39;;;;;;;;;;;;;;;;;;10420822;28;19925;-61
2022/09/26 22:36:41;;;;;;;;;;;;;;;;;;10420254;28;19925;-61
2022/09/26 22:41:43;;;;;;;;;;;;;;;;;;10421589;28;20265;-61
2022/09/26 22:46:45;;;;;;;;;;;;;;;;;;10418151;28;19933;-61
2022/09/26 22:51:48;;;;;;;;;;;;;;;;;;10421814;28;19975;-61
2022/09/26 22:56:50;;;;;;;;;;;;;;;;;;10421118;28;19995;-61
2022/09/26 23:01:52;;;;;;;;;;;;;;;;;;10420003;28;19979;-61
2022/09/26 23:06:54;;;;;;;;;;;;;;;;;;10418197;28;20048;-61
2022/09/26 23:11:56;;;;;;;;;;;;;;;;;;10421056;28;19925;-61
2022/09/26 23:16:58;;;;;;;;;;;;;;;;;;10419256;28;19979;-61
2022/09/26 23:22:00;;;;;;;;;;;;;;;;;;10420724;28;19933;-61
2022/09/26 23:27:02;;;;;;;;;;;;;;;;;;10414305;28;19940;-61
2022/09/26 23:32:04;;;;;;;;;;;;;;;;;;10419425;28;19929;-61
2022/09/26 23:37:06;;;;;;;;;;;;;;;;;;10415573;28;19929;-61
2022/09/26 23:42:08;;;;;;;;;;;;;;;;;;10419008;28;19971;-61
2022/09/26 23:47:11;;;;;;;;;;;;;;;;;;10415076;28;19925;-61
2022/09/26 23:52:13;;;;;;;;;;;;;;;;;;10417570;28;19929;-61
2022/09/26 23:57:15;;;;;;;;;;;;;;;;;;10418583;28;19971;-61
